createdAt,value
2023-02-24T00:02:06.312Z,65.75
2023-02-24T00:04:40.945Z,65.86
2023-02-24T00:07:11.676Z,65.97
2023-02-24T00:09:40.374Z,65.81
2023-02-24T00:12:13.350Z,65.72
2023-02-24T00:14:44.817Z,65.86
2023-02-24T00:17:14.847Z,65.64
2023-02-24T00:19:43.712Z,65.47
2023-02-24T00:22:12.959Z,65.81
2023-02-24T00:24:42.241Z,65.89
2023-02-24T00:27:13.386Z,66.05
2023-02-24T00:29:42.431Z,66.09
2023-02-24T00:32:13.644Z,66.13
2023-02-24T00:34:43.472Z,66.44
2023-02-24T00:37:12.393Z,66.33
2023-02-24T00:39:42.237Z,66.32
2023-02-24T00:42:12.221Z,66.32
2023-02-24T00:44:45.404Z,66.24
2023-02-24T00:47:17.716Z,66.42
2023-02-24T00:49:46.371Z,66.38
2023-02-24T00:52:20.057Z,66.53
2023-02-24T00:54:49.730Z,66.33
2023-02-24T00:57:20.711Z,66.33
2023-02-24T00:59:51.516Z,66.21
2023-02-24T01:02:20.759Z,66.66
2023-02-24T01:04:51.200Z,66.53
2023-02-24T01:07:19.777Z,66.45
2023-02-24T01:09:51.015Z,66.83
2023-02-24T01:12:22.103Z,66.90
2023-02-24T01:14:52.979Z,66.80
2023-02-24T01:17:22.114Z,66.77
2023-02-24T01:19:50.734Z,66.84
2023-02-24T01:22:20.834Z,66.46
2023-02-24T01:24:49.626Z,66.68
2023-02-24T01:27:19.571Z,66.61
2023-02-24T01:29:49.167Z,66.59
2023-02-24T01:32:21.112Z,66.66
2023-02-24T01:34:53.402Z,66.61
2023-02-24T01:37:22.102Z,66.33
2023-02-24T01:39:51.204Z,66.17
2023-02-24T01:42:22.054Z,66.03
2023-02-24T01:44:52.455Z,66.24
2023-02-24T01:47:23.504Z,66.29
2023-02-24T01:49:55.060Z,66.26
2023-02-24T01:52:38.292Z,66.41
2023-02-24T01:55:24.670Z,66.38
2023-02-24T01:57:54.503Z,66.29
2023-02-24T02:00:38.378Z,66.50
2023-02-24T02:03:18.728Z,66.29
2023-02-24T02:05:48.824Z,66.33
2023-02-24T02:08:19.730Z,66.18
2023-02-24T02:10:48.253Z,65.99
2023-02-24T02:13:21.832Z,66.03
2023-02-24T02:15:56.954Z,66.01
2023-02-24T02:18:59.239Z,65.85
2023-02-24T02:21:36.838Z,65.69
2023-02-24T02:24:27.133Z,65.70
2023-02-24T02:27:07.036Z,65.65
2023-02-24T02:29:47.425Z,65.51
2023-02-24T02:32:22.218Z,65.59
2023-02-24T02:35:19.418Z,65.88
2023-02-24T02:37:57.314Z,65.80
2023-02-24T02:41:03.244Z,65.86
2023-02-24T02:43:39.779Z,65.73
2023-02-24T02:46:35.926Z,65.92
2023-02-24T02:49:21.197Z,65.58
2023-02-24T02:51:57.546Z,65.91
2023-02-24T02:54:45.597Z,65.80
2023-02-24T02:57:21.657Z,65.69
2023-02-24T03:00:21.670Z,65.85
2023-02-24T03:03:03.528Z,65.82
2023-02-24T03:05:46.697Z,65.63
2023-02-24T03:08:25.968Z,65.56
2023-02-24T03:11:00.517Z,65.63
2023-02-24T03:13:37.021Z,65.47
2023-02-24T03:16:06.793Z,65.61
2023-02-24T03:18:41.341Z,65.76
2023-02-24T03:21:16.955Z,65.78
2023-02-24T03:23:50.262Z,65.91
2023-02-24T03:26:21.802Z,65.90
2023-02-24T03:28:59.524Z,65.83
2023-02-24T03:31:35.926Z,66.10
2023-02-24T03:34:43.491Z,66.13
2023-02-24T03:37:12.551Z,66.31
2023-02-24T03:39:41.480Z,66.14
2023-02-24T03:42:19.178Z,66.24
2023-02-24T03:44:50.029Z,66.36
2023-02-24T03:47:20.757Z,66.27
2023-02-24T03:49:50.581Z,66.47
2023-02-24T03:52:29.299Z,66.43
2023-02-24T03:55:23.893Z,66.53
2023-02-24T03:58:32.376Z,66.69
2023-02-24T04:01:10.886Z,66.64
2023-02-24T04:04:22.580Z,66.68
2023-02-24T04:07:17.146Z,66.97
2023-02-24T04:10:20.329Z,66.73
2023-02-24T04:12:52.731Z,67.23
2023-02-24T04:15:44.100Z,67.39
2023-02-24T04:18:19.774Z,67.58
2023-02-24T04:20:53.562Z,67.46
2023-02-24T04:23:31.975Z,67.15
2023-02-24T04:26:01.924Z,67.40
2023-02-24T04:28:31.519Z,67.68
2023-02-24T04:31:10.360Z,67.34
2023-02-24T04:33:40.567Z,67.42
2023-02-24T04:36:13.071Z,67.23
2023-02-24T04:38:42.241Z,67.47
2023-02-24T04:41:11.163Z,67.73
2023-02-24T04:43:41.159Z,67.81
2023-02-24T04:46:09.483Z,67.74
2023-02-24T04:48:39.253Z,67.87
2023-02-24T04:51:08.456Z,67.92
2023-02-24T04:53:38.274Z,67.64
2023-02-24T04:56:10.130Z,67.97
2023-02-24T04:58:40.076Z,67.68
2023-02-24T05:01:13.540Z,67.91
2023-02-24T05:03:45.355Z,68.03
2023-02-24T05:06:17.949Z,68.05
2023-02-24T05:08:46.293Z,68.11
2023-02-24T05:11:16.519Z,68.21
2023-02-24T05:13:46.158Z,68.08
2023-02-24T05:16:18.193Z,68.25
2023-02-24T05:18:46.683Z,67.90
2023-02-24T05:21:35.751Z,68.17
2023-02-24T05:24:07.327Z,68.33
2023-02-24T05:26:38.171Z,68.23
2023-02-24T05:29:07.034Z,68.35
2023-02-24T05:31:37.241Z,68.36
2023-02-24T05:34:08.025Z,68.31
2023-02-24T05:36:40.548Z,68.11
2023-02-24T05:39:14.792Z,68.40
2023-02-24T05:41:43.484Z,68.18
2023-02-24T05:44:16.030Z,68.39
2023-02-24T05:46:46.874Z,68.09
2023-02-24T05:49:24.021Z,68.05
2023-02-24T05:51:55.520Z,68.21
2023-02-24T05:54:33.030Z,67.93
2023-02-24T05:57:14.140Z,67.99
2023-02-24T05:59:46.076Z,67.85
2023-02-24T06:02:16.439Z,67.82
2023-02-24T06:04:55.821Z,67.84
2023-02-24T06:07:29.247Z,67.67
2023-02-24T06:10:00.238Z,67.61
2023-02-24T06:12:34.201Z,67.54
2023-02-24T06:15:08.058Z,67.36
2023-02-24T06:17:37.006Z,67.20
2023-02-24T06:20:15.207Z,67.00
2023-02-24T06:22:43.419Z,67.16
2023-02-24T06:25:12.213Z,66.97
2023-02-24T06:27:40.668Z,66.86
2023-02-24T06:30:10.585Z,66.97
2023-02-24T06:32:39.368Z,66.93
2023-02-24T06:35:08.805Z,67.01
2023-02-24T06:37:37.384Z,67.04
2023-02-24T06:40:16.083Z,66.82
2023-02-24T06:42:54.307Z,66.63
2023-02-24T06:45:24.535Z,66.41
2023-02-24T06:47:53.434Z,66.52
2023-02-24T06:50:22.228Z,66.36
2023-02-24T06:52:55.102Z,66.29
2023-02-24T06:55:26.442Z,66.10
2023-02-24T06:57:57.922Z,65.80
2023-02-24T07:00:40.880Z,66.10
2023-02-24T07:03:17.364Z,65.78
2023-02-24T07:05:50.594Z,65.70
2023-02-24T07:08:24.172Z,65.52
2023-02-24T07:10:54.232Z,65.52
2023-02-24T07:13:28.903Z,65.64
2023-02-24T07:16:06.965Z,65.47
2023-02-24T07:18:41.796Z,65.43
2023-02-24T07:21:16.515Z,65.36
2023-02-24T07:23:45.817Z,65.29
2023-02-24T07:26:19.140Z,65.01
2023-02-24T07:28:48.247Z,64.92
2023-02-24T07:31:19.832Z,64.67
2023-02-24T07:33:48.878Z,64.58
2023-02-24T07:36:23.397Z,64.25
2023-02-24T07:38:54.043Z,63.71
2023-02-24T07:41:23.681Z,63.61
2023-02-24T07:43:56.354Z,63.36
2023-02-24T07:46:28.216Z,63.04
2023-02-24T07:49:00.034Z,62.74
2023-02-24T07:51:29.895Z,62.47
2023-02-24T07:54:01.468Z,62.44
2023-02-24T07:56:31.502Z,62.23
2023-02-24T07:59:03.013Z,62.09
2023-02-24T08:01:39.210Z,61.89
2023-02-24T08:04:08.976Z,61.37
2023-02-24T08:06:46.090Z,61.02
2023-02-24T08:09:18.521Z,60.81
2023-02-24T08:11:52.606Z,60.66
2023-02-24T08:14:32.936Z,60.30
2023-02-24T08:17:05.573Z,60.13
2023-02-24T08:19:39.915Z,59.83
2023-02-24T08:22:20.144Z,59.40
2023-02-24T08:24:52.882Z,59.11
2023-02-24T08:27:25.947Z,58.84
2023-02-24T08:29:58.381Z,58.62
2023-02-24T08:32:38.421Z,58.66
2023-02-24T08:35:15.110Z,58.21
2023-02-24T08:37:47.665Z,57.71
2023-02-24T08:40:33.423Z,57.37
2023-02-24T08:43:22.467Z,57.50
2023-02-24T08:46:25.820Z,57.08
2023-02-24T08:49:01.151Z,56.18
2023-02-24T08:51:35.690Z,55.65
2023-02-24T08:54:15.774Z,55.76
2023-02-24T08:56:49.382Z,55.52
2023-02-24T08:59:37.695Z,54.72
2023-02-24T09:02:24.628Z,54.42
2023-02-24T09:05:04.079Z,53.61
2023-02-24T09:07:37.632Z,52.67
2023-02-24T09:10:11.798Z,52.48
2023-02-24T09:12:41.595Z,52.00
2023-02-24T09:15:17.528Z,51.67
2023-02-24T09:17:46.343Z,51.51
2023-02-24T09:20:43.803Z,50.85
2023-02-24T09:23:20.453Z,49.19
2023-02-24T09:25:54.720Z,48.28
2023-02-24T09:28:27.662Z,46.57
2023-02-24T09:31:05.069Z,44.63
2023-02-24T09:33:41.969Z,42.63
2023-02-24T09:36:27.993Z,41.83
2023-02-24T09:39:00.793Z,41.30
2023-02-24T09:42:02.762Z,40.65
2023-02-24T09:44:37.387Z,41.47
2023-02-24T09:47:20.206Z,40.28
2023-02-24T09:49:59.339Z,40.97
2023-02-24T09:52:43.109Z,40.92
2023-02-24T09:55:26.642Z,40.04
2023-02-24T09:58:31.928Z,39.02
2023-02-24T10:01:34.456Z,38.33
2023-02-24T10:04:21.501Z,38.94
2023-02-24T10:07:03.253Z,38.23
2023-02-24T10:09:42.827Z,38.06
2023-02-24T10:12:20.113Z,37.73
2023-02-24T10:15:00.543Z,37.55
2023-02-24T10:17:40.445Z,37.72
2023-02-24T10:20:28.760Z,38.14
2023-02-24T10:23:29.807Z,38.81
2023-02-24T10:26:51.347Z,38.37
2023-02-24T10:29:39.730Z,38.01
2023-02-24T10:32:24.086Z,38.42
2023-02-24T10:34:53.585Z,38.41
2023-02-24T10:37:29.039Z,37.96
2023-02-24T10:40:10.277Z,37.46
2023-02-24T10:42:49.023Z,37.42
2023-02-24T10:45:24.806Z,37.11
2023-02-24T10:47:57.418Z,37.77
2023-02-24T10:50:54.870Z,37.80
2023-02-24T10:53:41.206Z,37.81
2023-02-24T10:56:27.193Z,37.08
2023-02-24T10:59:24.894Z,37.44
2023-02-24T11:01:59.391Z,37.87
2023-02-24T11:05:03.870Z,37.98
2023-02-24T11:07:53.795Z,38.30
2023-02-24T11:10:41.605Z,38.40
2023-02-24T11:13:35.857Z,38.29
2023-02-24T11:16:26.675Z,38.94
2023-02-24T11:18:57.445Z,39.48
2023-02-24T11:21:27.650Z,39.96
2023-02-24T11:24:03.062Z,40.13
2023-02-24T11:26:38.007Z,40.43
2023-02-24T11:29:58.566Z,40.88
2023-02-24T11:33:04.606Z,41.02
2023-02-24T11:35:56.952Z,41.58
2023-02-24T11:38:42.533Z,41.71
2023-02-24T11:41:41.251Z,41.71
2023-02-24T11:44:35.052Z,41.87
2023-02-24T11:47:09.984Z,41.94
2023-02-24T11:49:48.603Z,41.94
2023-02-24T11:52:22.821Z,41.59
2023-02-24T11:54:56.873Z,41.58
2023-02-24T11:57:45.789Z,41.94
2023-02-24T12:00:29.635Z,42.03
2023-02-24T12:03:05.097Z,42.49
2023-02-24T12:05:39.322Z,42.64
2023-02-24T12:08:32.027Z,42.93
2023-02-24T12:11:33.884Z,43.23
2023-02-24T12:14:02.160Z,43.53
2023-02-24T12:16:35.894Z,43.76
2023-02-24T12:19:15.197Z,43.75
2023-02-24T12:21:48.801Z,43.81
2023-02-24T12:24:17.398Z,43.70
2023-02-24T12:27:01.479Z,43.97
2023-02-24T12:30:06.741Z,44.10
2023-02-24T12:32:52.354Z,44.43
2023-02-24T12:35:53.157Z,44.61
2023-02-24T12:38:27.788Z,44.83
2023-02-24T12:41:18.827Z,44.89
2023-02-24T12:44:06.098Z,45.05
2023-02-24T12:46:37.615Z,45.10
2023-02-24T12:49:18.125Z,45.24
2023-02-24T12:51:54.702Z,45.58
2023-02-24T12:54:49.777Z,45.62
2023-02-24T12:57:34.130Z,45.82
2023-02-24T13:00:15.038Z,45.91
2023-02-24T13:03:10.402Z,45.72
2023-02-24T13:05:59.758Z,45.70
2023-02-24T13:08:40.534Z,45.70
2023-02-24T13:11:59.273Z,45.76
2023-02-24T13:14:41.254Z,45.92
2023-02-24T13:17:12.824Z,46.36
2023-02-24T13:19:43.762Z,46.55
2023-02-24T13:22:12.140Z,46.60
2023-02-24T13:24:44.815Z,46.54
2023-02-24T13:27:13.405Z,46.58
2023-02-24T13:29:54.493Z,46.75
2023-02-24T13:32:25.892Z,47.10
2023-02-24T13:34:54.655Z,46.82
2023-02-24T13:37:34.867Z,46.63
2023-02-24T13:40:26.710Z,44.82
2023-02-24T13:42:58.460Z,42.76
2023-02-24T13:45:31.276Z,41.42
2023-02-24T13:48:41.079Z,39.85
2023-02-24T13:51:26.459Z,37.58
2023-02-24T13:54:23.606Z,37.10
2023-02-24T13:57:16.538Z,36.59
2023-02-24T14:00:13.281Z,36.90
2023-02-24T14:02:44.394Z,37.21
2023-02-24T14:05:36.014Z,38.10
2023-02-24T14:08:05.338Z,39.45
2023-02-24T14:10:36.341Z,40.72
2023-02-24T14:13:08.556Z,41.66
2023-02-24T14:15:42.156Z,42.73
2023-02-24T14:18:19.434Z,43.17
2023-02-24T14:20:48.039Z,44.12
2023-02-24T14:23:29.256Z,44.74
2023-02-24T14:26:06.410Z,45.26
2023-02-24T14:28:37.772Z,45.69
2023-02-24T14:31:15.590Z,46.16
2023-02-24T14:33:45.587Z,46.70
2023-02-24T14:36:18.800Z,47.31
2023-02-24T14:38:47.458Z,47.63
2023-02-24T14:41:27.855Z,47.86
2023-02-24T14:43:56.812Z,48.20
2023-02-24T14:46:25.548Z,48.37
2023-02-24T14:48:56.396Z,48.60
2023-02-24T14:51:36.455Z,48.86
2023-02-24T14:54:13.365Z,49.45
2023-02-24T14:56:42.260Z,50.04
2023-02-24T14:59:39.197Z,50.50
2023-02-24T15:02:19.216Z,50.89
2023-02-24T15:04:48.041Z,51.32
2023-02-24T15:07:21.444Z,51.52
2023-02-24T15:09:51.977Z,52.10
2023-02-24T15:12:23.229Z,52.32
2023-02-24T15:14:55.108Z,52.43
2023-02-24T15:17:23.971Z,53.21
2023-02-24T15:19:55.188Z,53.44
2023-02-24T15:22:28.133Z,53.65
2023-02-24T15:25:16.661Z,54.38
2023-02-24T15:28:02.083Z,54.75
2023-02-24T15:30:40.236Z,55.04
2023-02-24T15:33:21.217Z,55.56
2023-02-24T15:35:54.608Z,56.03
2023-02-24T15:38:26.066Z,56.23
2023-02-24T15:41:01.008Z,56.20
2023-02-24T15:43:37.441Z,56.23
2023-02-24T15:46:15.720Z,57.21
2023-02-24T15:48:47.233Z,57.47
2023-02-24T15:51:37.332Z,57.59
2023-02-24T15:54:12.957Z,57.73
2023-02-24T15:56:42.848Z,57.62
2023-02-24T15:59:15.261Z,57.57
2023-02-24T16:01:43.955Z,57.44
2023-02-24T16:04:12.324Z,57.71
2023-02-24T16:06:44.101Z,57.35
2023-02-24T16:09:15.201Z,58.25
2023-02-24T16:11:47.038Z,58.25
2023-02-24T16:14:17.945Z,58.41
2023-02-24T16:16:46.374Z,58.86
2023-02-24T16:19:15.967Z,59.39
2023-02-24T16:21:44.479Z,59.44
2023-02-24T16:24:13.026Z,59.60
2023-02-24T16:26:41.915Z,59.92
2023-02-24T16:29:14.886Z,59.92
2023-02-24T16:31:43.241Z,59.89
2023-02-24T16:34:15.932Z,60.24
2023-02-24T16:36:44.463Z,60.42
2023-02-24T16:39:14.387Z,60.49
2023-02-24T16:41:42.764Z,60.62
2023-02-24T16:44:11.359Z,60.36
2023-02-24T16:46:44.036Z,60.77
2023-02-24T16:49:19.275Z,61.19
2023-02-24T16:51:47.675Z,61.37
2023-02-24T16:54:15.941Z,61.77
2023-02-24T16:56:45.548Z,61.81
2023-02-24T16:59:14.388Z,61.67
2023-02-24T17:01:43.130Z,61.78
2023-02-24T17:04:13.620Z,61.30
2023-02-24T17:06:41.857Z,61.52
2023-02-24T17:09:10.253Z,61.71
2023-02-24T17:11:38.523Z,61.43
2023-02-24T17:14:06.925Z,61.51
2023-02-24T17:16:39.667Z,61.63
2023-02-24T17:19:08.900Z,61.83
2023-02-24T17:21:40.769Z,62.05
2023-02-24T17:24:20.231Z,62.27
2023-02-24T17:26:48.590Z,62.60
2023-02-24T17:29:16.970Z,62.80
2023-02-24T17:31:45.887Z,63.21
2023-02-24T17:34:14.351Z,63.36
2023-02-24T17:36:42.835Z,63.72
2023-02-24T17:39:11.290Z,63.88
2023-02-24T17:41:39.701Z,64.00
2023-02-24T17:44:08.089Z,64.49
2023-02-24T17:46:36.953Z,64.53
2023-02-24T17:49:05.577Z,64.67
2023-02-24T17:51:33.956Z,64.43
2023-02-24T17:54:02.440Z,64.81
2023-02-24T17:56:31.238Z,64.95
2023-02-24T17:59:01.179Z,64.74
2023-02-24T18:01:29.771Z,64.62
2023-02-24T18:03:58.237Z,64.66
2023-02-24T18:06:26.922Z,64.52
2023-02-24T18:08:55.310Z,64.59
2023-02-24T18:11:23.485Z,64.61
2023-02-24T18:13:52.890Z,64.39
2023-02-24T18:16:22.033Z,64.33
2023-02-24T18:18:50.995Z,64.20
2023-02-24T18:21:19.805Z,64.06
2023-02-24T18:23:49.907Z,64.25
2023-02-24T18:26:18.912Z,64.19
2023-02-24T18:28:47.294Z,63.98
2023-02-24T18:31:19.224Z,64.05
2023-02-24T18:33:48.240Z,63.89
2023-02-24T18:36:17.875Z,63.72
2023-02-24T18:38:46.766Z,63.72
2023-02-24T18:41:21.300Z,63.93
2023-02-24T18:43:52.549Z,63.87
2023-02-24T18:46:22.548Z,64.00
2023-02-24T18:48:51.689Z,64.50
2023-02-24T18:51:23.536Z,64.86
2023-02-24T18:53:53.065Z,65.30
2023-02-24T18:56:26.877Z,65.25
2023-02-24T18:58:57.400Z,65.09
2023-02-24T19:01:30.088Z,65.22
2023-02-24T19:03:59.135Z,65.02
2023-02-24T19:06:29.493Z,65.08
2023-02-24T19:09:21.760Z,65.00
2023-02-24T19:11:51.103Z,64.95
2023-02-24T19:14:19.409Z,65.11
2023-02-24T19:16:47.897Z,65.01
2023-02-24T19:19:16.837Z,64.81
2023-02-24T19:21:45.795Z,64.88
2023-02-24T19:24:14.791Z,64.73
2023-02-24T19:26:47.707Z,64.77
2023-02-24T19:29:17.393Z,64.77
2023-02-24T19:31:46.044Z,64.70
2023-02-24T19:34:15.593Z,64.55
2023-02-24T19:36:43.874Z,64.42
2023-02-24T19:39:15.029Z,64.22
2023-02-24T19:41:44.120Z,64.24
2023-02-24T19:44:13.040Z,64.19
2023-02-24T19:46:43.365Z,64.08
2023-02-24T19:49:14.835Z,64.04
2023-02-24T19:51:43.809Z,63.79
2023-02-24T19:54:14.004Z,63.67
2023-02-24T19:56:42.417Z,63.59
2023-02-24T19:59:11.540Z,63.66
2023-02-24T20:01:39.874Z,63.60
2023-02-24T20:04:09.034Z,64.02
2023-02-24T20:06:40.456Z,63.89
2023-02-24T20:09:11.494Z,64.16
2023-02-24T20:11:40.339Z,64.41
2023-02-24T20:14:10.545Z,64.60
2023-02-24T20:16:40.489Z,64.63
2023-02-24T20:19:10.053Z,64.64
2023-02-24T20:21:39.251Z,64.42
2023-02-24T20:24:13.391Z,64.56
2023-02-24T20:26:47.255Z,64.74
2023-02-24T20:29:18.427Z,64.95
2023-02-24T20:31:47.959Z,64.81
2023-02-24T20:34:16.979Z,65.02
2023-02-24T20:36:46.032Z,65.07
2023-02-24T20:39:14.757Z,65.33
2023-02-24T20:41:43.956Z,65.39
2023-02-24T20:44:13.233Z,65.57
2023-02-24T20:46:42.674Z,65.98
2023-02-24T20:49:14.738Z,65.94
2023-02-24T20:51:43.787Z,65.98
2023-02-24T20:54:13.444Z,66.10
2023-02-24T20:56:43.700Z,66.48
2023-02-24T20:59:22.188Z,66.29
2023-02-24T21:01:51.156Z,66.53
2023-02-24T21:04:21.544Z,66.49
2023-02-24T21:06:52.024Z,66.60
2023-02-24T21:09:20.311Z,66.90
2023-02-24T21:11:48.821Z,66.85
2023-02-24T21:14:17.694Z,67.13
2023-02-24T21:16:46.810Z,66.66
2023-02-24T21:19:15.392Z,66.99
2023-02-24T21:21:43.965Z,67.38
2023-02-24T21:24:12.358Z,67.22
2023-02-24T21:26:40.734Z,67.06
2023-02-24T21:29:09.016Z,67.20
2023-02-24T21:31:37.495Z,67.24
2023-02-24T21:34:06.317Z,67.51
2023-02-24T21:36:34.572Z,67.53
2023-02-24T21:39:03.174Z,67.76
2023-02-24T21:41:31.789Z,67.95
2023-02-24T21:44:00.805Z,67.58
2023-02-24T21:46:30.454Z,67.68
2023-02-24T21:48:59.676Z,67.59
2023-02-24T21:51:29.429Z,67.73
2023-02-24T21:53:58.407Z,67.67
2023-02-24T21:56:29.431Z,67.72
2023-02-24T21:59:01.914Z,67.80
2023-02-24T22:01:39.490Z,68.27
2023-02-24T22:04:11.071Z,68.36
2023-02-24T22:06:41.965Z,68.66
2023-02-24T22:09:11.209Z,68.37
2023-02-24T22:11:41.205Z,68.15
2023-02-24T22:14:14.113Z,68.05
2023-02-24T22:16:43.265Z,67.82
2023-02-24T22:19:12.250Z,67.87
2023-02-24T22:21:42.624Z,67.78
2023-02-24T22:24:13.971Z,67.89
2023-02-24T22:26:43.193Z,68.14
2023-02-24T22:29:11.997Z,68.39
2023-02-24T22:31:43.916Z,68.53
2023-02-24T22:34:14.895Z,68.73
2023-02-24T22:36:43.616Z,68.80
2023-02-24T22:39:16.754Z,68.82
2023-02-24T22:41:46.916Z,68.85
2023-02-24T22:44:19.398Z,68.77
2023-02-24T22:46:48.408Z,69.16
2023-02-24T22:49:17.455Z,69.04
2023-02-24T22:51:45.949Z,69.14
2023-02-24T22:54:14.779Z,69.22
2023-02-24T22:56:43.741Z,69.17
2023-02-24T22:59:12.764Z,69.05
2023-02-24T23:01:43.892Z,69.17
2023-02-24T23:04:17.267Z,69.07
2023-02-24T23:06:47.803Z,69.05
2023-02-24T23:09:20.106Z,69.01
2023-02-24T23:11:49.112Z,68.88
2023-02-24T23:14:17.611Z,68.96
2023-02-24T23:16:47.510Z,68.89
2023-02-24T23:19:18.025Z,68.95
2023-02-24T23:21:49.859Z,69.32
2023-02-24T23:24:20.020Z,69.55
2023-02-24T23:26:54.767Z,69.76
2023-02-24T23:29:24.439Z,69.86
2023-02-24T23:31:53.595Z,70.35
2023-02-24T23:34:22.074Z,70.08
2023-02-24T23:36:51.077Z,70.18
2023-02-24T23:39:24.049Z,70.15
2023-02-24T23:41:56.985Z,69.96
2023-02-24T23:44:26.068Z,70.22
2023-02-24T23:46:55.290Z,70.19
2023-02-24T23:49:24.288Z,70.02
2023-02-24T23:51:52.738Z,70.17
2023-02-24T23:54:21.121Z,70.39
2023-02-24T23:56:54.417Z,70.46
2023-02-24T23:59:23.170Z,70.55
